createdAt,value
2019-02-06T00:00:45.007Z,-3.45
2019-02-06T00:03:33.649Z,-3.42
2019-02-06T00:06:22.979Z,-3.41
2019-02-06T00:09:14.214Z,-3.91
2019-02-06T00:12:03.474Z,-3.94
2019-02-06T00:14:52.386Z,-4.01
2019-02-06T00:17:41.165Z,-4.15
2019-02-06T00:20:29.672Z,-4.37
2019-02-06T00:23:19.619Z,-4.53
2019-02-06T00:26:08.643Z,-4.25
2019-02-06T00:28:57.317Z,-4.16
2019-02-06T00:31:46.186Z,-4.25
2019-02-06T00:34:35.430Z,-4.39
2019-02-06T00:37:24.334Z,-4.71
2019-02-06T00:40:13.587Z,-4.38
2019-02-06T00:43:02.551Z,-4.21
2019-02-06T00:45:50.790Z,-4.11
2019-02-06T00:48:41.710Z,-4.14
2019-02-06T00:51:30.698Z,-3.98
2019-02-06T00:54:21.057Z,-4.13
2019-02-06T00:57:10.529Z,-4.18
2019-02-06T00:59:59.837Z,-3.87
2019-02-06T01:02:48.685Z,-3.79
2019-02-06T01:05:38.928Z,-4.08
2019-02-06T01:08:27.554Z,-4.07
2019-02-06T01:11:15.704Z,-4.25
2019-02-06T01:14:05.435Z,-4.25
2019-02-06T01:16:54.097Z,-3.89
2019-02-06T01:19:43.077Z,-3.80
2019-02-06T01:22:32.038Z,-3.85
2019-02-06T01:25:20.336Z,-4.40
2019-02-06T01:28:09.077Z,-4.66
2019-02-06T01:31:12.999Z,-4.37
2019-02-06T01:34:01.345Z,-4.14
2019-02-06T01:36:49.639Z,-3.78
2019-02-06T01:39:37.987Z,-3.73
2019-02-06T01:42:27.189Z,-3.73
2019-02-06T01:45:17.707Z,-3.78
2019-02-06T01:48:06.355Z,-3.82
2019-02-06T01:50:55.446Z,-3.74
2019-02-06T01:53:44.164Z,-3.87
2019-02-06T01:56:33.528Z,-4.03
2019-02-06T01:59:22.497Z,-4.14
2019-02-06T02:02:10.830Z,-4.05
2019-02-06T02:05:00.693Z,-4.04
2019-02-06T02:07:50.956Z,-4.03
2019-02-06T02:10:40.300Z,-3.86
2019-02-06T02:13:28.453Z,-3.81
2019-02-06T02:16:17.338Z,-4.10
2019-02-06T02:19:06.148Z,-4.10
2019-02-06T02:21:54.613Z,-4.14
2019-02-06T02:24:43.928Z,-4.11
2019-02-06T02:27:32.905Z,-4.11
2019-02-06T02:30:28.517Z,-4.05
2019-02-06T02:33:17.845Z,-4.05
2019-02-06T02:36:16.048Z,-3.99
2019-02-06T02:38:57.422Z,-4.16
2019-02-06T02:41:46.532Z,-4.36
2019-02-06T02:44:34.959Z,-4.36
2019-02-06T02:47:23.651Z,-4.48
2019-02-06T02:50:12.288Z,-4.51
2019-02-06T02:53:00.701Z,-4.94
2019-02-06T02:55:49.605Z,-5.01
2019-02-06T02:58:38.449Z,-5.16
2019-02-06T03:01:39.537Z,-5.01
2019-02-06T03:04:31.129Z,-4.85
2019-02-06T03:07:19.882Z,-4.51
2019-02-06T03:10:09.594Z,-4.40
2019-02-06T03:12:58.029Z,-4.39
2019-02-06T03:15:47.667Z,-4.89
2019-02-06T03:18:36.495Z,-4.77
2019-02-06T03:21:26.440Z,-4.82
2019-02-06T03:24:15.670Z,-4.86
2019-02-06T03:27:04.778Z,-4.83
2019-02-06T03:29:52.670Z,-4.79
2019-02-06T03:32:41.637Z,-4.79
2019-02-06T03:35:30.096Z,-4.45
2019-02-06T03:38:18.867Z,-4.62
2019-02-06T03:41:07.797Z,-4.55
2019-02-06T03:43:56.628Z,-4.54
2019-02-06T03:46:46.668Z,-4.39
2019-02-06T03:49:35.959Z,-4.19
2019-02-06T03:52:24.733Z,-4.24
2019-02-06T03:55:14.213Z,-4.42
2019-02-06T03:58:02.329Z,-5.00
2019-02-06T04:00:51.305Z,-5.26
2019-02-06T04:03:39.883Z,-5.35
2019-02-06T04:06:28.606Z,-5.19
2019-02-06T04:09:16.590Z,-5.14
2019-02-06T04:12:06.626Z,-5.02
2019-02-06T04:14:54.878Z,-5.21
2019-02-06T04:17:43.823Z,-5.06
2019-02-06T04:20:32.759Z,-4.87
2019-02-06T04:23:21.775Z,-5.01
2019-02-06T04:26:10.639Z,-5.24
2019-02-06T04:28:59.628Z,-5.25
2019-02-06T04:31:47.724Z,-5.04
2019-02-06T04:34:53.656Z,-4.87
2019-02-06T04:37:43.328Z,-4.63
2019-02-06T04:40:33.016Z,-4.52
2019-02-06T04:43:22.007Z,-4.45
2019-02-06T04:46:10.875Z,-4.33
2019-02-06T04:48:59.496Z,-4.37
2019-02-06T04:51:48.435Z,-4.94
2019-02-06T04:54:38.569Z,-4.87
2019-02-06T04:57:27.210Z,-4.73
2019-02-06T05:00:25.990Z,-4.76
2019-02-06T05:03:15.107Z,-4.87
2019-02-06T05:06:04.513Z,-4.78
2019-02-06T05:08:54.546Z,-4.95
2019-02-06T05:11:43.284Z,-5.12
2019-02-06T05:14:32.165Z,-5.23
2019-02-06T05:17:20.799Z,-5.48
2019-02-06T05:20:31.284Z,-5.69
2019-02-06T05:23:19.905Z,-5.72
2019-02-06T05:26:08.185Z,-5.94
2019-02-06T05:28:57.683Z,-6.06
2019-02-06T05:31:51.930Z,-5.88
2019-02-06T05:34:40.935Z,-5.56
2019-02-06T05:37:32.304Z,-5.78
2019-02-06T05:40:20.915Z,-5.75
2019-02-06T05:43:10.838Z,-5.48
2019-02-06T05:45:59.166Z,-5.44
2019-02-06T05:48:50.646Z,-5.26
2019-02-06T05:51:39.300Z,-5.21
2019-02-06T05:54:28.511Z,-5.27
2019-02-06T05:57:20.754Z,-5.43
2019-02-06T06:00:13.070Z,-5.16
2019-02-06T06:03:01.574Z,-5.32
2019-02-06T06:05:50.326Z,-5.02
2019-02-06T06:08:39.176Z,-5.05
2019-02-06T06:11:27.946Z,-5.26
2019-02-06T06:14:17.504Z,-5.35
2019-02-06T06:17:06.707Z,-5.34
2019-02-06T06:19:55.589Z,-5.28
2019-02-06T06:22:45.502Z,-5.05
2019-02-06T06:25:35.292Z,-5.24
2019-02-06T06:28:26.007Z,-5.17
2019-02-06T06:31:17.363Z,-5.10
2019-02-06T06:34:05.372Z,-5.16
2019-02-06T06:36:56.842Z,-5.25
2019-02-06T06:39:46.643Z,-5.15
2019-02-06T06:42:35.165Z,-5.09
2019-02-06T06:45:24.193Z,-5.14
2019-02-06T06:48:13.140Z,-5.11
2019-02-06T06:51:02.826Z,-5.12
2019-02-06T06:53:52.187Z,-5.55
2019-02-06T06:56:41.166Z,-5.31
2019-02-06T06:59:29.508Z,-5.19
2019-02-06T07:02:18.535Z,-5.14
2019-02-06T07:05:07.611Z,-5.17
2019-02-06T07:08:09.050Z,-5.09
2019-02-06T07:10:48.383Z,-4.90
2019-02-06T07:13:37.902Z,-4.92
2019-02-06T07:16:27.108Z,-4.88
2019-02-06T07:19:15.754Z,-4.76
2019-02-06T07:22:04.205Z,-4.69
2019-02-06T07:24:53.110Z,-4.64
2019-02-06T07:27:46.121Z,-4.47
2019-02-06T07:30:36.831Z,-4.46
2019-02-06T07:33:25.443Z,-4.39
2019-02-06T07:36:14.751Z,-4.32
2019-02-06T07:39:06.529Z,-4.31
2019-02-06T07:41:55.410Z,-4.29
2019-02-06T07:44:44.004Z,-4.15
2019-02-06T07:47:33.121Z,-4.29
2019-02-06T07:50:26.500Z,-4.16
2019-02-06T07:53:16.395Z,-4.10
2019-02-06T07:56:05.689Z,-4.04
2019-02-06T07:58:53.851Z,-3.85
2019-02-06T08:01:42.382Z,-3.85
2019-02-06T08:04:31.017Z,-3.97
2019-02-06T08:07:19.661Z,-3.79
2019-02-06T08:10:11.814Z,-3.73
2019-02-06T08:13:01.015Z,-3.94
2019-02-06T08:15:50.947Z,-3.88
2019-02-06T08:18:40.604Z,-3.95
2019-02-06T08:21:29.731Z,-4.01
2019-02-06T08:24:18.322Z,-4.01
2019-02-06T08:27:07.187Z,-3.96
2019-02-06T08:29:56.219Z,-3.83
2019-02-06T08:32:44.131Z,-3.98
2019-02-06T08:35:33.351Z,-3.77
2019-02-06T08:38:22.125Z,-3.57
2019-02-06T08:41:11.361Z,-3.48
2019-02-06T08:44:01.880Z,-3.48
2019-02-06T08:46:50.319Z,-3.30
2019-02-06T08:49:40.049Z,-3.01
2019-02-06T08:52:28.620Z,-3.01
2019-02-06T08:55:19.977Z,-3.01
2019-02-06T08:58:08.680Z,-2.77
2019-02-06T09:00:57.014Z,-2.61
2019-02-06T09:03:45.574Z,-2.47
2019-02-06T09:06:34.548Z,-2.47
2019-02-06T09:09:22.922Z,-2.62
2019-02-06T09:12:12.333Z,-3.20
2019-02-06T09:15:01.522Z,-2.94
2019-02-06T09:17:49.689Z,-2.95
2019-02-06T09:20:38.210Z,-2.67
2019-02-06T09:23:28.240Z,-2.45
2019-02-06T09:26:17.548Z,-2.21
2019-02-06T09:29:06.819Z,-2.21
2019-02-06T09:31:59.317Z,-2.08
2019-02-06T09:34:47.277Z,-1.88
2019-02-06T09:37:36.331Z,-2.10
2019-02-06T09:40:26.790Z,-2.88
2019-02-06T09:43:15.462Z,-2.88
2019-02-06T09:46:04.212Z,-2.12
2019-02-06T09:48:55.515Z,-2.12
2019-02-06T09:51:46.902Z,-2.14
2019-02-06T09:54:35.627Z,-2.16
2019-02-06T09:57:24.489Z,-2.16
2019-02-06T10:00:19.809Z,-2.19
2019-02-06T10:03:10.730Z,-1.97
2019-02-06T10:05:59.794Z,-3.01
2019-02-06T10:08:48.061Z,-3.01
2019-02-06T10:11:36.806Z,-2.71
2019-02-06T10:14:25.628Z,-1.83
2019-02-06T10:17:14.439Z,-1.76
2019-02-06T10:20:03.632Z,-1.88
2019-02-06T10:22:51.868Z,-1.65
2019-02-06T10:25:40.124Z,-1.65
2019-02-06T10:28:29.432Z,-1.84
2019-02-06T10:31:18.939Z,-2.38
2019-02-06T10:34:07.950Z,-1.88
2019-02-06T10:36:56.525Z,-1.91
2019-02-06T10:39:45.041Z,-2.11
2019-02-06T10:42:34.064Z,-1.75
2019-02-06T10:45:23.991Z,-1.84
2019-02-06T10:48:13.920Z,-1.55
2019-02-06T10:51:02.929Z,-1.85
2019-02-06T10:53:52.318Z,-1.85
2019-02-06T10:56:42.000Z,-1.71
2019-02-06T10:59:30.541Z,-1.56
2019-02-06T11:02:18.599Z,-1.63
2019-02-06T11:05:07.348Z,-2.12
2019-02-06T11:07:55.533Z,-2.12
2019-02-06T11:10:43.962Z,-1.98
2019-02-06T11:13:32.231Z,-2.04
2019-02-06T11:16:20.490Z,-1.39
2019-02-06T11:19:09.247Z,-1.64
2019-02-06T11:21:58.165Z,-1.46
2019-02-06T11:24:46.651Z,-1.28
2019-02-06T11:27:36.167Z,-0.96
2019-02-06T11:30:26.468Z,-0.96
2019-02-06T11:33:15.482Z,-0.93
2019-02-06T11:36:04.482Z,-0.62
2019-02-06T11:38:54.662Z,-0.62
2019-02-06T11:41:43.807Z,-0.41
2019-02-06T11:44:32.702Z,-0.41
2019-02-06T11:47:22.586Z,-0.47
2019-02-06T11:50:14.861Z,-0.47
2019-02-06T11:53:03.725Z,-0.56
2019-02-06T11:55:53.938Z,-0.72
2019-02-06T11:58:42.172Z,-0.58
2019-02-06T12:01:34.931Z,-0.32
2019-02-06T12:04:23.622Z,-0.71
2019-02-06T12:07:11.989Z,-0.33
2019-02-06T12:10:09.782Z,-0.11
2019-02-06T12:12:56.142Z,-0.01
2019-02-06T12:15:44.934Z,0.30
2019-02-06T12:18:35.729Z,0.30
2019-02-06T12:21:24.653Z,-0.34
2019-02-06T12:24:13.175Z,-0.32
2019-02-06T12:27:01.978Z,-0.49
2019-02-06T12:29:50.504Z,-0.15
2019-02-06T12:32:39.273Z,0.38
2019-02-06T12:35:27.840Z,0.52
2019-02-06T12:38:16.771Z,0.58
2019-02-06T12:41:06.119Z,0.85
2019-02-06T12:43:55.738Z,1.08
2019-02-06T12:46:43.958Z,1.13
2019-02-06T12:49:32.213Z,0.99
2019-02-06T12:52:20.456Z,1.00
2019-02-06T12:55:11.578Z,0.98
2019-02-06T12:58:00.628Z,0.97
2019-02-06T13:00:49.786Z,0.65
2019-02-06T13:03:38.955Z,0.54
2019-02-06T13:06:28.512Z,0.29
2019-02-06T13:09:16.813Z,0.16
2019-02-06T13:12:06.061Z,0.20
2019-02-06T13:14:55.276Z,0.05
2019-02-06T13:17:44.169Z,0.14
2019-02-06T13:20:33.575Z,0.09
2019-02-06T13:23:22.233Z,0.11
2019-02-06T13:26:10.621Z,0.12
2019-02-06T13:28:59.387Z,0.02
2019-02-06T13:31:48.307Z,-0.05
2019-02-06T13:34:37.073Z,0.09
2019-02-06T13:37:26.192Z,0.23
2019-02-06T13:40:16.785Z,-0.06
2019-02-06T13:43:05.899Z,-0.15
2019-02-06T13:45:54.883Z,-0.29
2019-02-06T13:48:43.847Z,-0.37
2019-02-06T13:51:34.075Z,-0.18
2019-02-06T13:54:22.932Z,-0.25
2019-02-06T13:57:11.983Z,-0.42
2019-02-06T14:00:01.228Z,-0.64
2019-02-06T14:02:50.401Z,-0.56
2019-02-06T14:05:39.487Z,-0.83
2019-02-06T14:08:29.073Z,-1.09
2019-02-06T14:11:18.446Z,-1.00
2019-02-06T14:14:06.934Z,-1.00
2019-02-06T14:16:56.152Z,-1.08
2019-02-06T14:19:45.503Z,-1.12
2019-02-06T14:22:33.828Z,-1.26
2019-02-06T14:25:27.249Z,-1.19
2019-02-06T14:28:50.023Z,-1.29
2019-02-06T14:32:02.172Z,-1.60
2019-02-06T14:35:24.877Z,-1.60
2019-02-06T14:39:12.746Z,-1.70
2019-02-06T14:42:44.956Z,-1.92
2019-02-06T14:46:10.230Z,-2.04
2019-02-06T14:49:13.540Z,-2.04
2019-02-06T14:53:11.459Z,-2.10
2019-02-06T14:56:23.688Z,-2.10
2019-02-06T14:59:55.201Z,-2.03
2019-02-06T15:03:08.516Z,-1.91
2019-02-06T15:06:24.735Z,-1.84
2019-02-06T15:09:47.731Z,-1.83
2019-02-06T15:13:14.985Z,-1.82
2019-02-06T15:16:26.648Z,-1.71
2019-02-06T15:19:49.057Z,-1.73
2019-02-06T15:23:05.254Z,-1.83
2019-02-06T15:26:04.615Z,-1.84
2019-02-06T15:29:30.633Z,-1.83
2019-02-06T15:33:10.120Z,-1.92
2019-02-06T15:36:20.628Z,-2.00
2019-02-06T15:40:01.018Z,-1.94
2019-02-06T15:43:35.491Z,-2.02
2019-02-06T15:46:59.032Z,-2.06
2019-02-06T15:49:55.270Z,-2.06
2019-02-06T15:53:11.111Z,-2.18
2019-02-06T15:56:31.441Z,-2.18
2019-02-06T15:59:45.587Z,-2.29
2019-02-06T16:02:54.662Z,-2.29
2019-02-06T16:06:20.313Z,-2.35
2019-02-06T16:09:54.689Z,-2.65
2019-02-06T16:13:08.535Z,-2.82
2019-02-06T16:16:33.240Z,-2.89
2019-02-06T16:19:52.447Z,-2.89
2019-02-06T16:23:30.908Z,-3.23
2019-02-06T16:27:14.342Z,-3.57
2019-02-06T16:30:17.509Z,-3.57
2019-02-06T16:33:37.942Z,-3.71
2019-02-06T16:36:43.857Z,-4.03
2019-02-06T16:40:00.515Z,-4.10
2019-02-06T16:43:46.043Z,-4.19
2019-02-06T16:47:07.299Z,-4.14
2019-02-06T16:50:40.221Z,-4.15
2019-02-06T16:57:34.083Z,-4.15
2019-02-06T17:01:03.834Z,-4.09
2019-02-06T17:04:21.453Z,-4.05
2019-02-06T17:08:19.081Z,-3.93
2019-02-06T17:11:46.197Z,-3.98
2019-02-06T17:15:02.701Z,-3.85
2019-02-06T17:19:09.520Z,-3.77
2019-02-06T17:22:44.577Z,-3.75
2019-02-06T17:26:25.084Z,-3.73
2019-02-06T17:29:56.916Z,-3.60
2019-02-06T17:33:04.860Z,-3.57
2019-02-06T17:36:24.019Z,-3.53
2019-02-06T17:39:24.160Z,-3.56
2019-02-06T17:42:41.331Z,-3.57
2019-02-06T17:45:51.944Z,-3.58
2019-02-06T17:49:11.936Z,-3.65
2019-02-06T17:52:33.591Z,-3.69
2019-02-06T17:55:26.019Z,-3.73
2019-02-06T17:58:14.348Z,-3.73
2019-02-06T18:01:10.896Z,-3.71
2019-02-06T18:04:18.811Z,-3.71
2019-02-06T18:07:07.688Z,-3.76
2019-02-06T18:09:57.207Z,-3.79
2019-02-06T18:12:46.480Z,-3.79
2019-02-06T18:15:35.163Z,-3.83
2019-02-06T18:18:24.249Z,-3.83
2019-02-06T18:21:12.816Z,-3.91
2019-02-06T18:24:01.980Z,-3.88
2019-02-06T18:26:52.894Z,-3.91
2019-02-06T18:29:42.355Z,-3.94
2019-02-06T18:32:31.014Z,-4.11
2019-02-06T18:35:21.101Z,-4.02
2019-02-06T18:38:10.633Z,-3.86
2019-02-06T18:40:59.308Z,-3.95
2019-02-06T18:43:48.540Z,-3.98
2019-02-06T18:46:36.873Z,-4.01
2019-02-06T18:49:25.684Z,-3.99
2019-02-06T18:52:20.518Z,-4.36
2019-02-06T18:55:05.839Z,-4.36
2019-02-06T18:57:55.014Z,-4.40
2019-02-06T19:00:44.113Z,-4.51
2019-02-06T19:03:39.201Z,-4.37
2019-02-06T19:06:29.034Z,-4.24
2019-02-06T19:09:18.346Z,-4.28
2019-02-06T19:12:07.319Z,-4.22
2019-02-06T19:14:58.779Z,-4.13
2019-02-06T19:17:46.557Z,-4.11
2019-02-06T19:20:35.763Z,-4.04
2019-02-06T19:23:24.499Z,-4.11
2019-02-06T19:26:14.042Z,-4.19
2019-02-06T19:29:03.109Z,-4.29
2019-02-06T19:31:51.315Z,-4.28
2019-02-06T19:34:40.533Z,-4.31
2019-02-06T19:37:29.256Z,-4.30
2019-02-06T19:40:18.138Z,-4.44
2019-02-06T19:43:11.792Z,-4.38
2019-02-06T19:46:00.801Z,-4.34
2019-02-06T19:48:55.491Z,-4.43
2019-02-06T19:51:43.837Z,-4.35
2019-02-06T19:54:32.777Z,-4.34
2019-02-06T19:57:21.237Z,-4.38
2019-02-06T20:00:12.354Z,-4.51
2019-02-06T20:03:20.206Z,-4.76
2019-02-06T20:06:28.506Z,-4.72
2019-02-06T20:09:18.397Z,-4.61
2019-02-06T20:12:08.511Z,-4.53
2019-02-06T20:14:57.331Z,-4.56
2019-02-06T20:17:46.826Z,-4.60
2019-02-06T20:20:35.891Z,-4.57
2019-02-06T20:23:24.783Z,-4.54
2019-02-06T20:26:13.102Z,-4.69
2019-02-06T20:29:03.145Z,-4.64
2019-02-06T20:31:52.246Z,-4.79
2019-02-06T20:34:41.432Z,-4.73
2019-02-06T20:37:33.718Z,-4.74
2019-02-06T20:40:29.175Z,-4.76
2019-02-06T20:43:22.127Z,-4.68
2019-02-06T20:46:09.264Z,-4.73
2019-02-06T20:48:57.418Z,-4.70
2019-02-06T20:51:45.759Z,-4.59
2019-02-06T20:54:35.396Z,-4.56
2019-02-06T20:57:24.273Z,-4.46
2019-02-06T21:00:19.451Z,-4.46
2019-02-06T21:03:07.800Z,-4.42
2019-02-06T21:05:58.883Z,-4.41
2019-02-06T21:08:48.018Z,-4.42
2019-02-06T21:11:36.446Z,-4.44
2019-02-06T21:14:24.982Z,-4.44
2019-02-06T21:17:14.172Z,-4.45
2019-02-06T21:20:03.654Z,-4.46
2019-02-06T21:22:52.907Z,-4.41
2019-02-06T21:25:46.921Z,-4.46
2019-02-06T21:28:36.273Z,-4.49
2019-02-06T21:31:25.006Z,-4.59
2019-02-06T21:34:14.292Z,-4.68
2019-02-06T21:37:03.771Z,-4.64
2019-02-06T21:43:06.712Z,-4.59
2019-02-06T21:45:55.756Z,-4.68
2019-02-06T21:48:44.729Z,-4.58
2019-02-06T21:51:33.334Z,-4.73
2019-02-06T21:54:22.932Z,-4.72
2019-02-06T21:57:11.803Z,-4.57
2019-02-06T22:00:00.482Z,-4.69
2019-02-06T22:02:49.165Z,-4.71
2019-02-06T22:05:38.127Z,-4.81
2019-02-06T22:08:26.721Z,-4.86
2019-02-06T22:11:15.020Z,-4.85
2019-02-06T22:14:03.850Z,-4.68
2019-02-06T22:16:52.502Z,-4.80
2019-02-06T22:19:40.626Z,-4.82
2019-02-06T22:22:30.877Z,-4.78
2019-02-06T22:25:20.797Z,-4.90
2019-02-06T22:28:10.474Z,-4.86
2019-02-06T22:31:00.725Z,-4.77
2019-02-06T22:33:51.028Z,-4.82
2019-02-06T22:36:40.802Z,-4.75
2019-02-06T22:39:30.320Z,-4.76
2019-02-06T22:42:19.869Z,-5.06
2019-02-06T22:45:30.731Z,-4.97
2019-02-06T22:48:22.261Z,-5.18
2019-02-06T22:51:12.212Z,-5.16
2019-02-06T22:54:01.887Z,-5.25
2019-02-06T22:56:51.667Z,-5.11
2019-02-06T23:02:51.124Z,-4.97
2019-02-06T23:05:40.917Z,-4.85
2019-02-06T23:08:30.796Z,-4.74
2019-02-06T23:11:23.112Z,-4.92
2019-02-06T23:14:18.039Z,-5.15
2019-02-06T23:17:05.620Z,-4.93
2019-02-06T23:19:55.146Z,-4.95
2019-02-06T23:22:45.309Z,-4.94
2019-02-06T23:25:34.825Z,-4.82
2019-02-06T23:28:25.097Z,-4.74
2019-02-06T23:31:14.954Z,-4.81
2019-02-06T23:34:05.421Z,-4.94
2019-02-06T23:36:55.485Z,-4.83
2019-02-06T23:39:45.628Z,-4.72
2019-02-06T23:42:35.695Z,-4.78
2019-02-06T23:45:25.224Z,-4.86
2019-02-06T23:48:15.692Z,-4.79
2019-02-06T23:51:45.088Z,-4.95
2019-02-06T23:54:35.085Z,-4.94
2019-02-06T23:57:24.911Z,-4.84
